sensor_id;sensor_type;location;lat;lon;timestamp;pressure;altitude;pressure_sealevel;temperature;humidity
7052;BME280;3567;52.444;13.556;2023-08-30T00:00:14;100389.94;;;14.11;100.00
7052;BME280;3567;52.444;13.556;2023-08-30T00:02:42;100385.41;;;14.11;100.00
7052;BME280;3567;52.444;13.556;2023-08-30T00:05:08;100390.78;;;14.11;100.00
7052;BME280;3567;52.444;13.556;2023-08-30T00:07:34;100380.00;;;14.11;100.00
7052;BME280;3567;52.444;13.556;2023-08-30T00:09:59;100385.41;;;14.11;100.00
7052;BME280;3567;52.444;13.556;2023-08-30T00:12:25;100377.31;;;14.11;100.00
7052;BME280;3567;52.444;13.556;2023-08-30T00:14:51;100381.06;;;14.10;100.00
7052;BME280;3567;52.444;13.556;2023-08-30T00:17:17;100384.31;;;14.12;100.00
7052;BME280;3567;52.444;13.556;2023-08-30T00:19:42;100383.75;;;14.10;100.00
7052;BME280;3567;52.444;13.556;2023-08-30T00:22:08;100387.53;;;14.09;100.00
7052;BME280;3567;52.444;13.556;2023-08-30T00:24:34;100387.53;;;14.09;100.00
7052;BME280;3567;52.444;13.556;2023-08-30T00:27:01;100391.84;;;14.10;100.00
7052;BME280;3567;52.444;13.556;2023-08-30T00:29:27;100385.91;;;14.08;100.00
7052;BME280;3567;52.444;13.556;2023-08-30T00:31:52;100386.41;;;14.05;100.00
7052;BME280;3567;52.444;13.556;2023-08-30T00:34:18;100374.28;;;14.03;100.00
7052;BME280;3567;52.444;13.556;2023-08-30T00:36:43;100376.19;;;14.02;100.00
7052;BME280;3567;52.444;13.556;2023-08-30T00:39:08;100370.78;;;14.02;100.00
7052;BME280;3567;52.444;13.556;2023-08-30T00:41:34;100363.22;;;13.99;100.00
7052;BME280;3567;52.444;13.556;2023-08-30T00:44:00;100371.31;;;13.99;100.00
7052;BME280;3567;52.444;13.556;2023-08-30T00:46:25;100367.81;;;13.99;100.00
7052;BME280;3567;52.444;13.556;2023-08-30T00:48:51;100364.03;;;14.00;100.00
7052;BME280;3567;52.444;13.556;2023-08-30T00:51:16;100368.59;;;13.99;100.00
7052;BME280;3567;52.444;13.556;2023-08-30T00:53:42;100364.31;;;13.98;100.00
7052;BME280;3567;52.444;13.556;2023-08-30T00:56:09;100364.03;;;14.00;100.00
7052;BME280;3567;52.444;13.556;2023-08-30T00:58:34;100364.84;;;14.00;100.00
7052;BME280;3567;52.444;13.556;2023-08-30T01:01:00;100374.56;;;14.01;100.00
7052;BME280;3567;52.444;13.556;2023-08-30T01:03:25;100377.81;;;14.03;100.00
7052;BME280;3567;52.444;13.556;2023-08-30T01:05:51;100385.88;;;14.03;100.00
7052;BME280;3567;52.444;13.556;2023-08-30T01:08:16;100379.69;;;14.03;100.00
7052;BME280;3567;52.444;13.556;2023-08-30T01:13:33;100386.97;;;14.02;100.00
7052;BME280;3567;52.444;13.556;2023-08-30T01:16:01;100386.16;;;14.02;100.00
7052;BME280;3567;52.444;13.556;2023-08-30T01:18:32;100379.94;;;14.01;100.00
7052;BME280;3567;52.444;13.556;2023-08-30T01:21:00;100378.06;;;14.02;100.00
7052;BME280;3567;52.444;13.556;2023-08-30T01:26:38;100389.06;;;14.00;100.00
7052;BME280;3567;52.444;13.556;2023-08-30T01:29:08;100397.16;;;14.00;100.00
7052;BME280;3567;52.444;13.556;2023-08-30T01:31:35;100398.81;;;14.01;100.00
7052;BME280;3567;52.444;13.556;2023-08-30T01:34:02;100391.78;;;14.00;100.00
7052;BME280;3567;52.444;13.556;2023-08-30T01:36:30;100398.22;;;13.99;100.00
7052;BME280;3567;52.444;13.556;2023-08-30T01:38:58;100390.97;;;14.00;100.00
7052;BME280;3567;52.444;13.556;2023-08-30T01:41:24;100391.53;;;14.02;100.00
7052;BME280;3567;52.444;13.556;2023-08-30T01:43:51;100396.66;;;14.03;100.00
7052;BME280;3567;52.444;13.556;2023-08-30T01:46:18;100401.53;;;14.06;100.00
7052;BME280;3567;52.444;13.556;2023-08-30T01:48:45;100408.78;;;14.06;100.00
7052;BME280;3567;52.444;13.556;2023-08-30T01:51:12;100407.97;;;14.05;100.00
7052;BME280;3567;52.444;13.556;2023-08-30T01:53:39;100410.13;;;14.03;100.00
7052;BME280;3567;52.444;13.556;2023-08-30T01:56:04;100398.81;;;14.01;100.00
7052;BME280;3567;52.444;13.556;2023-08-30T01:58:30;100395.00;;;13.97;100.00
7052;BME280;3567;52.444;13.556;2023-08-30T02:00:56;100394.69;;;13.94;100.00
7052;BME280;3567;52.444;13.556;2023-08-30T02:03:21;100398.97;;;13.89;100.00
7052;BME280;3567;52.444;13.556;2023-08-30T02:08:16;100398.94;;;13.84;100.00
7052;BME280;3567;52.444;13.556;2023-08-30T02:10:51;100399.19;;;13.83;100.00
7052;BME280;3567;52.444;13.556;2023-08-30T02:13:21;100399.19;;;13.83;100.00
7052;BME280;3567;52.444;13.556;2023-08-30T02:15:50;100399.19;;;13.83;100.00
7052;BME280;3567;52.444;13.556;2023-08-30T02:18:17;100389.25;;;13.83;100.00
7052;BME280;3567;52.444;13.556;2023-08-30T02:20:43;100394.88;;;13.82;100.00
7052;BME280;3567;52.444;13.556;2023-08-30T02:23:09;100401.88;;;13.83;100.00
7052;BME280;3567;52.444;13.556;2023-08-30T02:25:35;100408.66;;;13.85;100.00
7052;BME280;3567;52.444;13.556;2023-08-30T02:28:00;100411.09;;;13.87;100.00
7052;BME280;3567;52.444;13.556;2023-08-30T02:30:26;100401.94;;;13.88;100.00
7052;BME280;3567;52.444;13.556;2023-08-30T02:32:51;100398.69;;;13.86;100.00
7052;BME280;3567;52.444;13.556;2023-08-30T02:35:16;100390.63;;;13.86;100.00
7052;BME280;3567;52.444;13.556;2023-08-30T02:37:42;100391.97;;;13.88;100.00
7052;BME280;3567;52.444;13.556;2023-08-30T02:40:08;100391.16;;;13.88;100.00
7052;BME280;3567;52.444;13.556;2023-08-30T02:42:34;100377.97;;;13.86;100.00
7052;BME280;3567;52.444;13.556;2023-08-30T02:44:59;100373.88;;;13.84;100.00
7052;BME280;3567;52.444;13.556;2023-08-30T02:47:24;100376.03;;;13.82;100.00
7052;BME280;3567;52.444;13.556;2023-08-30T02:49:50;100381.69;;;13.80;100.00
7052;BME280;3567;52.444;13.556;2023-08-30T02:52:17;100371.97;;;13.79;100.00
7052;BME280;3567;52.444;13.556;2023-08-30T02:54:42;100364.16;;;13.78;100.00
7052;BME280;3567;52.444;13.556;2023-08-30T02:57:08;100363.34;;;13.77;100.00
7052;BME280;3567;52.444;13.556;2023-08-30T02:59:33;100353.13;;;13.74;100.00
7052;BME280;3567;52.444;13.556;2023-08-30T03:01:59;100359.00;;;13.71;100.00
7052;BME280;3567;52.444;13.556;2023-08-30T03:04:24;100353.91;;;13.70;100.00
7052;BME280;3567;52.444;13.556;2023-08-30T03:06:50;100342.81;;;13.66;100.00
7052;BME280;3567;52.444;13.556;2023-08-30T03:09:15;100344.97;;;13.64;100.00
7052;BME280;3567;52.444;13.556;2023-08-30T03:11:40;100344.69;;;13.66;100.00
7052;BME280;3567;52.444;13.556;2023-08-30T03:14:06;100343.59;;;13.61;100.00
7052;BME280;3567;52.444;13.556;2023-08-30T03:16:31;100341.44;;;13.58;100.00
7052;BME280;3567;52.444;13.556;2023-08-30T03:18:58;100339.25;;;13.55;100.00
7052;BME280;3567;52.444;13.556;2023-08-30T03:21:23;100338.13;;;13.51;100.00
7052;BME280;3567;52.444;13.556;2023-08-30T03:23:48;100337.31;;;13.51;100.00
7052;BME280;3567;52.444;13.556;2023-08-30T03:26:15;100344.84;;;13.49;100.00
7052;BME280;3567;52.444;13.556;2023-08-30T03:28:42;100350.72;;;13.46;100.00
7052;BME280;3567;52.444;13.556;2023-08-30T03:31:18;100353.69;;;13.44;100.00
7052;BME280;3567;52.444;13.556;2023-08-30T03:33:43;100366.56;;;13.42;100.00
7052;BME280;3567;52.444;13.556;2023-08-30T03:36:14;100373.28;;;13.40;100.00
7052;BME280;3567;52.444;13.556;2023-08-30T03:38:40;100365.72;;;13.36;100.00
7052;BME280;3567;52.444;13.556;2023-08-30T03:41:05;100376.75;;;13.35;100.00
7052;BME280;3567;52.444;13.556;2023-08-30T03:43:32;100373.50;;;13.33;100.00
7052;BME280;3567;52.444;13.556;2023-08-30T03:45:59;100378.56;;;13.29;100.00
7052;BME280;3567;52.444;13.556;2023-08-30T03:48:24;100373.47;;;13.28;100.00
7052;BME280;3567;52.444;13.556;2023-08-30T03:50:50;100376.66;;;13.25;100.00
7052;BME280;3567;52.444;13.556;2023-08-30T03:53:15;100383.34;;;13.22;100.00
7052;BME280;3567;52.444;13.556;2023-08-30T03:55:41;100387.31;;;13.20;100.00
7052;BME280;3567;52.444;13.556;2023-08-30T03:58:06;100383.81;;;13.19;100.00
7052;BME280;3567;52.444;13.556;2023-08-30T04:00:32;100381.41;;;13.18;100.00
7052;BME280;3567;52.444;13.556;2023-08-30T04:02:57;100381.41;;;13.18;100.00
7052;BME280;3567;52.444;13.556;2023-08-30T04:05:22;100386.78;;;13.18;100.00
7052;BME280;3567;52.444;13.556;2023-08-30T04:07:48;100379.78;;;13.17;100.00
7052;BME280;3567;52.444;13.556;2023-08-30T04:10:13;100379.78;;;13.17;100.00
7052;BME280;3567;52.444;13.556;2023-08-30T04:12:38;100377.09;;;13.17;100.00
7052;BME280;3567;52.444;13.556;2023-08-30T04:15:04;100380.59;;;13.17;100.00
7052;BME280;3567;52.444;13.556;2023-08-30T04:17:29;100373.31;;;13.18;100.00
7052;BME280;3567;52.444;13.556;2023-08-30T04:19:55;100374.41;;;13.17;100.00
7052;BME280;3567;52.444;13.556;2023-08-30T04:22:20;100382.47;;;13.17;100.00
7052;BME280;3567;52.444;13.556;2023-08-30T04:24:46;100381.66;;;13.16;100.00
7052;BME280;3567;52.444;13.556;2023-08-30T04:27:12;100381.09;;;13.14;100.00
7052;BME280;3567;52.444;13.556;2023-08-30T04:29:37;100379.47;;;13.13;100.00
7052;BME280;3567;52.444;13.556;2023-08-30T04:32:03;100386.97;;;13.11;100.00
7052;BME280;3567;52.444;13.556;2023-08-30T04:34:28;100388.59;;;13.12;100.00
7052;BME280;3567;52.444;13.556;2023-08-30T04:36:55;100391.28;;;13.12;100.00
7052;BME280;3567;52.444;13.556;2023-08-30T04:39:21;100390.47;;;13.11;100.00
7052;BME280;3567;52.444;13.556;2023-08-30T04:41:46;100397.47;;;13.13;100.00
7052;BME280;3567;52.444;13.556;2023-08-30T04:44:11;100402.59;;;13.14;100.00
7052;BME280;3567;52.444;13.556;2023-08-30T04:46:37;100399.69;;;13.16;100.00
7052;BME280;3567;52.444;13.556;2023-08-30T04:49:02;100389.72;;;13.16;100.00
7052;BME280;3567;52.444;13.556;2023-08-30T04:51:27;100391.34;;;13.17;100.00
7052;BME280;3567;52.444;13.556;2023-08-30T04:53:53;100391.34;;;13.17;100.00
7052;BME280;3567;52.444;13.556;2023-08-30T04:56:18;100402.66;;;13.19;100.00
7052;BME280;3567;52.444;13.556;2023-08-30T04:58:44;100399.22;;;13.24;100.00
7052;BME280;3567;52.444;13.556;2023-08-30T05:01:09;100407.91;;;13.31;100.00
7052;BME280;3567;52.444;13.556;2023-08-30T05:03:36;100414.97;;;13.37;100.00
7052;BME280;3567;52.444;13.556;2023-08-30T05:06:01;100420.16;;;13.44;100.00
7052;BME280;3567;52.444;13.556;2023-08-30T05:08:27;100418.84;;;13.51;100.00
7052;BME280;3567;52.444;13.556;2023-08-30T05:10:55;100414.09;;;13.58;100.00
7052;BME280;3567;52.444;13.556;2023-08-30T05:13:21;100417.38;;;13.66;100.00
7052;BME280;3567;52.444;13.556;2023-08-30T05:15:46;100409.06;;;13.72;100.00
7052;BME280;3567;52.444;13.556;2023-08-30T05:18:11;100408.31;;;13.77;100.00
7052;BME280;3567;52.444;13.556;2023-08-30T05:20:36;100413.72;;;13.82;100.00
7052;BME280;3567;52.444;13.556;2023-08-30T05:23:02;100401.94;;;13.88;100.00
7052;BME280;3567;52.444;13.556;2023-08-30T05:25:27;100403.81;;;13.87;100.00
7052;BME280;3567;52.444;13.556;2023-08-30T05:27:53;100395.72;;;13.87;100.00
7052;BME280;3567;52.444;13.556;2023-08-30T05:30:19;100391.47;;;13.92;100.00
7052;BME280;3567;52.444;13.556;2023-08-30T05:32:44;100396.56;;;13.93;100.00
7052;BME280;3567;52.444;13.556;2023-08-30T05:35:09;100394.69;;;13.94;100.00
7052;BME280;3567;52.444;13.556;2023-08-30T05:37:35;100403.34;;;13.96;100.00
7052;BME280;3567;52.444;13.556;2023-08-30T05:40:00;100394.47;;;14.00;100.00
7052;BME280;3567;52.444;13.556;2023-08-30T05:42:25;100393.44;;;14.06;100.00
7052;BME280;3567;52.444;13.556;2023-08-30T05:44:52;100392.91;;;14.09;100.00
7052;BME280;3567;52.444;13.556;2023-08-30T05:47:18;100394.84;;;14.14;100.00
7052;BME280;3567;52.444;13.556;2023-08-30T05:49:44;100395.16;;;14.23;100.00
7052;BME280;3567;52.444;13.556;2023-08-30T05:52:09;100394.34;;;14.27;100.00
7052;BME280;3567;52.444;13.556;2023-08-30T05:54:35;100393.34;;;14.33;100.00
7052;BME280;3567;52.444;13.556;2023-08-30T05:57:00;100397.41;;;14.41;100.00
7052;BME280;3567;52.444;13.556;2023-08-30T05:59:25;100394.72;;;14.46;100.00
7052;BME280;3567;52.444;13.556;2023-08-30T06:01:51;100389.41;;;14.51;100.00
7052;BME280;3567;52.444;13.556;2023-08-30T06:04:16;100390.53;;;14.60;100.00
7052;BME280;3567;52.444;13.556;2023-08-30T06:06:42;100384.59;;;14.63;100.00
7052;BME280;3567;52.444;13.556;2023-08-30T06:09:07;100382.47;;;14.71;100.00
7052;BME280;3567;52.444;13.556;2023-08-30T06:11:33;100387.06;;;14.70;100.00
7052;BME280;3567;52.444;13.556;2023-08-30T06:13:58;100394.59;;;14.73;100.00
7052;BME280;3567;52.444;13.556;2023-08-30T06:16:24;100396.00;;;14.81;100.00
7052;BME280;3567;52.444;13.556;2023-08-30T06:18:50;100394.38;;;14.85;100.00
7052;BME280;3567;52.444;13.556;2023-08-30T06:21:15;100390.31;;;14.82;100.00
7052;BME280;3567;52.444;13.556;2023-08-30T06:23:41;100386.03;;;14.81;100.00
7052;BME280;3567;52.444;13.556;2023-08-30T06:26:06;100379.28;;;14.84;100.00
7052;BME280;3567;52.444;13.556;2023-08-30T06:28:32;100384.66;;;14.84;100.00
7052;BME280;3567;52.444;13.556;2023-08-30T06:30:57;100373.91;;;14.89;100.00
7052;BME280;3567;52.444;13.556;2023-08-30T06:33:23;100379.81;;;14.91;100.00
7052;BME280;3567;52.444;13.556;2023-08-30T06:35:49;100374.44;;;14.96;100.00
7052;BME280;3567;52.444;13.556;2023-08-30T06:38:16;100384.44;;;15.01;100.00
7052;BME280;3567;52.444;13.556;2023-08-30T06:40:45;100380.66;;;15.02;100.00
7052;BME280;3567;52.444;13.556;2023-08-30T06:43:11;100385.00;;;15.08;100.00
7052;BME280;3567;52.444;13.556;2023-08-30T06:45:38;100373.41;;;15.17;100.00
7052;BME280;3567;52.444;13.556;2023-08-30T06:48:05;100370.19;;;15.26;100.00
7052;BME280;3567;52.444;13.556;2023-08-30T06:50:30;100367.50;;;15.26;100.00
7052;BME280;3567;52.444;13.556;2023-08-30T06:52:56;100366.41;;;15.32;100.00
7052;BME280;3567;52.444;13.556;2023-08-30T06:55:21;100362.09;;;15.41;100.00
7052;BME280;3567;52.444;13.556;2023-08-30T06:57:48;100375.84;;;15.44;100.00
7052;BME280;3567;52.444;13.556;2023-08-30T07:00:15;100370.72;;;15.48;100.00
7052;BME280;3567;52.444;13.556;2023-08-30T07:02:41;100368.31;;;15.52;100.00
7052;BME280;3567;52.444;13.556;2023-08-30T07:05:10;100371.25;;;15.55;100.00
7052;BME280;3567;52.444;13.556;2023-08-30T07:07:35;100374.53;;;15.57;100.00
7052;BME280;3567;52.444;13.556;2023-08-30T07:10:01;100373.16;;;15.60;100.00
7052;BME280;3567;52.444;13.556;2023-08-30T07:12:26;100362.66;;;15.63;100.00
7052;BME280;3567;52.444;13.556;2023-08-30T07:14:52;100364.84;;;15.71;100.00
7052;BME280;3567;52.444;13.556;2023-08-30T07:17:17;100371.03;;;15.82;100.00
7052;BME280;3567;52.444;13.556;2023-08-30T07:19:42;100371.28;;;15.96;100.00
7052;BME280;3567;52.444;13.556;2023-08-30T07:22:08;100369.09;;;16.03;100.00
7052;BME280;3567;52.444;13.556;2023-08-30T07:24:33;100372.03;;;16.12;100.00
7052;BME280;3567;52.444;13.556;2023-08-30T07:26:58;100373.91;;;16.21;100.00
7052;BME280;3567;52.444;13.556;2023-08-30T07:29:24;100370.91;;;16.33;100.00
7052;BME280;3567;52.444;13.556;2023-08-30T07:31:49;100369.78;;;16.39;100.00
7052;BME280;3567;52.444;13.556;2023-08-30T07:34:16;100375.44;;;16.48;100.00
7052;BME280;3567;52.444;13.556;2023-08-30T07:36:42;100377.31;;;16.58;100.00
7052;BME280;3567;52.444;13.556;2023-08-30T07:39:07;100379.41;;;16.66;100.00
7052;BME280;3567;52.444;13.556;2023-08-30T07:41:33;100376.97;;;16.69;100.00
7052;BME280;3567;52.444;13.556;2023-08-30T07:43:59;100382.38;;;16.69;100.00
7052;BME280;3567;52.444;13.556;2023-08-30T07:46:24;100387.81;;;16.69;100.00
7052;BME280;3567;52.444;13.556;2023-08-30T07:48:50;100381.88;;;16.72;100.00
7052;BME280;3567;52.444;13.556;2023-08-30T07:51:16;100378.09;;;16.73;100.00
7052;BME280;3567;52.444;13.556;2023-08-30T07:53:41;100384.81;;;16.76;100.00
7052;BME280;3567;52.444;13.556;2023-08-30T07:56:06;100391.03;;;16.76;100.00
7052;BME280;3567;52.444;13.556;2023-08-30T07:58:32;100382.66;;;16.78;100.00
7052;BME280;3567;52.444;13.556;2023-08-30T08:00:58;100387.75;;;16.85;100.00
7052;BME280;3567;52.444;13.556;2023-08-30T08:03:23;100388.81;;;16.89;100.00
7052;BME280;3567;52.444;13.556;2023-08-30T08:05:49;100388.81;;;16.89;100.00
7052;BME280;3567;52.444;13.556;2023-08-30T08:08:14;100391.78;;;16.87;100.00
7052;BME280;3567;52.444;13.556;2023-08-30T08:10:41;100393.41;;;16.88;100.00
7052;BME280;3567;52.444;13.556;2023-08-30T08:13:07;100401.50;;;16.93;100.00
7052;BME280;3567;52.444;13.556;2023-08-30T08:15:32;100395.25;;;16.98;100.00
7052;BME280;3567;52.444;13.556;2023-08-30T08:18:01;100404.97;;;16.99;100.00
7052;BME280;3567;52.444;13.556;2023-08-30T08:20:28;100401.22;;;17.00;100.00
7052;BME280;3567;52.444;13.556;2023-08-30T08:22:54;100396.84;;;16.99;100.00
7052;BME280;3567;52.444;13.556;2023-08-30T08:25:19;100390.38;;;17.00;100.00
7052;BME280;3567;52.444;13.556;2023-08-30T08:27:46;100387.13;;;16.98;100.00
7052;BME280;3567;52.444;13.556;2023-08-30T08:30:12;100386.59;;;17.01;100.00
7052;BME280;3567;52.444;13.556;2023-08-30T08:32:37;100389.25;;;17.06;100.00
7052;BME280;3567;52.444;13.556;2023-08-30T08:35:03;100381.34;;;17.15;100.00
7052;BME280;3567;52.444;13.556;2023-08-30T08:37:28;100379.97;;;17.22;100.00
7052;BME280;3567;52.444;13.556;2023-08-30T08:39:54;100380.19;;;17.31;100.00
7052;BME280;3567;52.444;13.556;2023-08-30T08:42:20;100381.16;;;17.40;100.00
7052;BME280;3567;52.444;13.556;2023-08-30T08:44:56;100380.50;;;17.59;100.00
7052;BME280;3567;52.444;13.556;2023-08-30T08:47:22;100377.13;;;17.72;100.00
7052;BME280;3567;52.444;13.556;2023-08-30T08:49:49;100373.78;;;17.85;100.00
7052;BME280;3567;52.444;13.556;2023-08-30T08:52:15;100369.88;;;17.96;100.00
7052;BME280;3567;52.444;13.556;2023-08-30T08:54:41;100368.69;;;18.08;100.00
7052;BME280;3567;52.444;13.556;2023-08-30T08:57:07;100369.09;;;18.20;100.00
7052;BME280;3567;52.444;13.556;2023-08-30T08:59:33;100362.19;;;18.32;100.00
7052;BME280;3567;52.444;13.556;2023-08-30T09:02:02;100358.19;;;18.49;100.00
7052;BME280;3567;52.444;13.556;2023-08-30T09:04:31;100360.53;;;18.55;100.00
7052;BME280;3567;52.444;13.556;2023-08-30T09:06:57;100373.16;;;18.65;100.00
7052;BME280;3567;52.444;13.556;2023-08-30T09:09:23;100363.97;;;18.85;100.00
7052;BME280;3567;52.444;13.556;2023-08-30T09:11:48;100369.31;;;18.90;100.00
7052;BME280;3567;52.444;13.556;2023-08-30T09:14:14;100364.03;;;18.99;100.00
7052;BME280;3567;52.444;13.556;2023-08-30T09:16:39;100364.63;;;18.96;100.00
7052;BME280;3567;52.444;13.556;2023-08-30T09:19:05;100365.06;;;18.84;98.31
7052;BME280;3567;52.444;13.556;2023-08-30T09:21:30;100362.59;;;18.88;98.66
7052;BME280;3567;52.444;13.556;2023-08-30T09:24:00;100369.84;;;18.92;97.45
7052;BME280;3567;52.444;13.556;2023-08-30T09:26:26;100361.84;;;19.01;97.22
7052;BME280;3567;52.444;13.556;2023-08-30T09:28:54;100360.16;;;19.24;96.79
7052;BME280;3567;52.444;13.556;2023-08-30T09:31:19;100347.69;;;19.55;95.54
7052;BME280;3567;52.444;13.556;2023-08-30T09:33:45;100354.81;;;19.84;94.76
7052;BME280;3567;52.444;13.556;2023-08-30T09:36:13;100353.13;;;19.88;94.23
7052;BME280;3567;52.444;13.556;2023-08-30T09:38:38;100347.47;;;19.84;94.03
7052;BME280;3567;52.444;13.556;2023-08-30T09:41:04;100343.25;;;19.78;93.75
7052;BME280;3567;52.444;13.556;2023-08-30T09:43:34;100347.06;;;19.77;93.93
7052;BME280;3567;52.444;13.556;2023-08-30T09:46:03;100345.81;;;19.70;92.97
7052;BME280;3567;52.444;13.556;2023-08-30T09:48:28;100349.53;;;19.60;93.10
7052;BME280;3567;52.444;13.556;2023-08-30T09:50:54;100358.03;;;19.53;91.87
7052;BME280;3567;52.444;13.556;2023-08-30T09:53:25;100358.91;;;19.49;91.51
7052;BME280;3567;52.444;13.556;2023-08-30T09:55:52;100351.56;;;19.49;90.25
7052;BME280;3567;52.444;13.556;2023-08-30T09:58:20;100350.84;;;19.62;89.92
7052;BME280;3567;52.444;13.556;2023-08-30T10:00:46;100340.63;;;19.73;88.91
7052;BME280;3567;52.444;13.556;2023-08-30T10:03:12;100344.06;;;19.93;88.75
7052;BME280;3567;52.444;13.556;2023-08-30T10:05:39;100335.50;;;19.99;87.46
7052;BME280;3567;52.444;13.556;2023-08-30T10:08:07;100341.03;;;19.94;86.63
7052;BME280;3567;52.444;13.556;2023-08-30T10:10:33;100333.91;;;20.12;85.94
7052;BME280;3567;52.444;13.556;2023-08-30T10:13:01;100337.34;;;20.31;84.52
7052;BME280;3567;52.444;13.556;2023-08-30T10:15:27;100333.88;;;20.39;81.77
7052;BME280;3567;52.444;13.556;2023-08-30T10:17:58;100331.00;;;20.36;80.59
7052;BME280;3567;52.444;13.556;2023-08-30T10:20:24;100326.34;;;20.36;80.74
7052;BME280;3567;52.444;13.556;2023-08-30T10:22:51;100326.06;;;20.52;81.28
7052;BME280;3567;52.444;13.556;2023-08-30T10:25:21;100323.72;;;20.59;79.12
7052;BME280;3567;52.444;13.556;2023-08-30T10:27:48;100322.59;;;20.74;77.75
7052;BME280;3567;52.444;13.556;2023-08-30T10:30:15;100326.09;;;20.88;77.58
7052;BME280;3567;52.444;13.556;2023-08-30T10:32:42;100330.06;;;21.04;76.63
7052;BME280;3567;52.444;13.556;2023-08-30T10:35:12;100331.00;;;21.22;75.10
7052;BME280;3567;52.444;13.556;2023-08-30T10:37:38;100335.31;;;21.37;75.38
7052;BME280;3567;52.444;13.556;2023-08-30T10:40:04;100336.97;;;21.47;74.75
7052;BME280;3567;52.444;13.556;2023-08-30T10:42:31;100328.41;;;21.39;73.84
7052;BME280;3567;52.444;13.556;2023-08-30T10:47:28;100331.88;;;21.54;74.21
7052;BME280;3567;52.444;13.556;2023-08-30T10:49:58;100326.31;;;21.67;73.12
7052;BME280;3567;52.444;13.556;2023-08-30T10:52:25;100336.88;;;21.91;71.75
7052;BME280;3567;52.444;13.556;2023-08-30T10:54:51;100333.22;;;22.05;70.76
7052;BME280;3567;52.444;13.556;2023-08-30T10:57:21;100335.72;;;22.15;66.97
7052;BME280;3567;52.444;13.556;2023-08-30T11:02:49;100332.59;;;22.47;66.25
7052;BME280;3567;52.444;13.556;2023-08-30T11:05:16;100332.78;;;22.60;65.09
7052;BME280;3567;52.444;13.556;2023-08-30T11:07:44;100328.16;;;22.86;65.60
7052;BME280;3567;52.444;13.556;2023-08-30T11:10:11;100333.16;;;23.10;63.00
7052;BME280;3567;52.444;13.556;2023-08-30T11:12:36;100329.31;;;23.29;64.20
7052;BME280;3567;52.444;13.556;2023-08-30T11:15:02;100334.09;;;23.32;63.44
7052;BME280;3567;52.444;13.556;2023-08-30T11:17:28;100332.34;;;23.27;62.00
7052;BME280;3567;52.444;13.556;2023-08-30T11:20:09;100327.88;;;23.14;60.25
7052;BME280;3567;52.444;13.556;2023-08-30T11:22:39;100329.75;;;22.70;60.54
7052;BME280;3567;52.444;13.556;2023-08-30T11:25:07;100324.59;;;22.60;61.67
7052;BME280;3567;52.444;13.556;2023-08-30T11:27:32;100323.31;;;22.66;62.18
7052;BME280;3567;52.444;13.556;2023-08-30T11:30:01;100327.25;;;22.91;62.32
7052;BME280;3567;52.444;13.556;2023-08-30T11:32:34;100331.56;;;23.00;60.88
7052;BME280;3567;52.444;13.556;2023-08-30T11:35:00;100326.41;;;22.99;60.47
7052;BME280;3567;52.444;13.556;2023-08-30T11:37:27;100326.91;;;23.10;59.22
7052;BME280;3567;52.444;13.556;2023-08-30T11:39:53;100321.94;;;23.12;58.07
7052;BME280;3567;52.444;13.556;2023-08-30T11:42:18;100318.56;;;22.97;58.11
7052;BME280;3567;52.444;13.556;2023-08-30T11:44:45;100327.03;;;22.79;58.77
7052;BME280;3567;52.444;13.556;2023-08-30T11:47:10;100315.94;;;22.66;58.11
7052;BME280;3567;52.444;13.556;2023-08-30T11:49:35;100321.38;;;22.58;58.36
7052;BME280;3567;52.444;13.556;2023-08-30T11:52:02;100321.06;;;22.68;59.00
7052;BME280;3567;52.444;13.556;2023-08-30T11:54:28;100313.88;;;22.81;59.66
7052;BME280;3567;52.444;13.556;2023-08-30T11:56:53;100319.00;;;22.82;60.11
7052;BME280;3567;52.444;13.556;2023-08-30T11:59:22;100315.91;;;22.49;59.34
7052;BME280;3567;52.444;13.556;2023-08-30T12:01:48;100323.06;;;22.19;59.49
7052;BME280;3567;52.444;13.556;2023-08-30T12:04:14;100316.38;;;22.03;60.60
7052;BME280;3567;52.444;13.556;2023-08-30T12:06:40;100312.47;;;21.86;60.14
7052;BME280;3567;52.444;13.556;2023-08-30T12:09:05;100304.53;;;21.67;60.65
7052;BME280;3567;52.444;13.556;2023-08-30T12:11:37;100302.03;;;21.49;61.86
7052;BME280;3567;52.444;13.556;2023-08-30T12:14:02;100304.66;;;21.31;62.49
7052;BME280;3567;52.444;13.556;2023-08-30T12:16:28;100301.47;;;21.15;63.82
7052;BME280;3567;52.444;13.556;2023-08-30T12:18:53;100318.97;;;21.01;65.17
7052;BME280;3567;52.444;13.556;2023-08-30T12:21:18;100310.84;;;20.87;66.90
7052;BME280;3567;52.444;13.556;2023-08-30T12:23:44;100308.19;;;20.73;65.39
7052;BME280;3567;52.444;13.556;2023-08-30T12:26:10;100314.34;;;20.65;66.46
7052;BME280;3567;52.444;13.556;2023-08-30T12:28:40;100313.31;;;20.61;67.21
7052;BME280;3567;52.444;13.556;2023-08-30T12:31:06;100307.09;;;20.60;67.55
7052;BME280;3567;52.444;13.556;2023-08-30T12:33:36;100314.44;;;20.60;67.54
7052;BME280;3567;52.444;13.556;2023-08-30T12:36:02;100309.91;;;20.55;68.03
7052;BME280;3567;52.444;13.556;2023-08-30T12:38:28;100309.09;;;20.55;68.39
7052;BME280;3567;52.444;13.556;2023-08-30T12:40:55;100298.34;;;20.50;68.18
7052;BME280;3567;52.444;13.556;2023-08-30T12:43:21;100299.53;;;20.44;66.03
7052;BME280;3567;52.444;13.556;2023-08-30T12:45:48;100299.75;;;20.33;64.02
7052;BME280;3567;52.444;13.556;2023-08-30T12:48:15;100306.19;;;20.24;64.62
7052;BME280;3567;52.444;13.556;2023-08-30T12:50:43;100298.75;;;20.15;63.89
7052;BME280;3567;52.444;13.556;2023-08-30T12:53:08;100290.22;;;20.08;64.14
7052;BME280;3567;52.444;13.556;2023-08-30T12:55:34;100302.47;;;20.06;64.49
7052;BME280;3567;52.444;13.556;2023-08-30T12:58:00;100296.56;;;20.04;65.38
7052;BME280;3567;52.444;13.556;2023-08-30T13:00:26;100289.50;;;20.03;65.15